sensor_id;sensor_type;location;lat;lon;timestamp;P1;durP1;ratioP1;P2;durP2;ratioP2
64199;SDS011;50516;52.272;5.136;2023-05-10T00:01:21;38.78;;;27.65;;
64199;SDS011;50516;52.272;5.136;2023-05-10T00:03:46;39.13;;;28.27;;
64199;SDS011;50516;52.272;5.136;2023-05-10T00:06:12;35.28;;;24.80;;
64199;SDS011;50516;52.272;5.136;2023-05-10T00:08:37;40.38;;;27.13;;
64199;SDS011;50516;52.272;5.136;2023-05-10T00:11:05;34.05;;;24.48;;
64199;SDS011;50516;52.272;5.136;2023-05-10T00:13:31;40.67;;;27.42;;
64199;SDS011;50516;52.272;5.136;2023-05-10T00:15:56;38.85;;;27.17;;
64199;SDS011;50516;52.272;5.136;2023-05-10T00:18:22;37.05;;;26.05;;
64199;SDS011;50516;52.272;5.136;2023-05-10T00:20:47;36.97;;;27.33;;
64199;SDS011;50516;52.272;5.136;2023-05-10T00:23:13;39.90;;;28.55;;
64199;SDS011;50516;52.272;5.136;2023-05-10T00:25:39;37.05;;;25.85;;
64199;SDS011;50516;52.272;5.136;2023-05-10T00:28:04;35.75;;;25.63;;
64199;SDS011;50516;52.272;5.136;2023-05-10T00:30:29;34.72;;;25.42;;
64199;SDS011;50516;52.272;5.136;2023-05-10T00:32:55;38.38;;;26.35;;
64199;SDS011;50516;52.272;5.136;2023-05-10T00:35:20;35.55;;;25.77;;
64199;SDS011;50516;52.272;5.136;2023-05-10T00:37:46;34.42;;;25.00;;
64199;SDS011;50516;52.272;5.136;2023-05-10T00:40:12;38.75;;;26.58;;
64199;SDS011;50516;52.272;5.136;2023-05-10T00:42:37;35.10;;;25.63;;
64199;SDS011;50516;52.272;5.136;2023-05-10T00:45:03;34.42;;;24.70;;
64199;SDS011;50516;52.272;5.136;2023-05-10T00:47:28;38.72;;;24.83;;
64199;SDS011;50516;52.272;5.136;2023-05-10T00:49:54;31.13;;;23.75;;
64199;SDS011;50516;52.272;5.136;2023-05-10T00:52:20;33.47;;;24.77;;
64199;SDS011;50516;52.272;5.136;2023-05-10T00:54:48;39.83;;;26.83;;
64199;SDS011;50516;52.272;5.136;2023-05-10T00:57:13;41.30;;;28.45;;
64199;SDS011;50516;52.272;5.136;2023-05-10T00:59:39;33.88;;;25.52;;
64199;SDS011;50516;52.272;5.136;2023-05-10T01:02:04;39.50;;;27.67;;
64199;SDS011;50516;52.272;5.136;2023-05-10T01:04:31;35.90;;;27.42;;
64199;SDS011;50516;52.272;5.136;2023-05-10T01:06:56;38.67;;;27.45;;
64199;SDS011;50516;52.272;5.136;2023-05-10T01:09:22;42.80;;;30.38;;
64199;SDS011;50516;52.272;5.136;2023-05-10T01:11:48;49.22;;;30.52;;
64199;SDS011;50516;52.272;5.136;2023-05-10T01:14:14;47.03;;;32.53;;
64199;SDS011;50516;52.272;5.136;2023-05-10T01:16:45;47.53;;;31.67;;
64199;SDS011;50516;52.272;5.136;2023-05-10T01:19:28;43.00;;;30.30;;
64199;SDS011;50516;52.272;5.136;2023-05-10T01:21:58;42.63;;;29.77;;
64199;SDS011;50516;52.272;5.136;2023-05-10T01:24:38;40.15;;;30.65;;
64199;SDS011;50516;52.272;5.136;2023-05-10T01:47:10;46.47;;;31.53;;
64199;SDS011;50516;52.272;5.136;2023-05-10T01:49:59;45.10;;;31.73;;
64199;SDS011;50516;52.272;5.136;2023-05-10T01:52:27;49.40;;;36.80;;
64199;SDS011;50516;52.272;5.136;2023-05-10T01:55:20;47.78;;;33.58;;
64199;SDS011;50516;52.272;5.136;2023-05-10T01:57:45;44.85;;;34.13;;
64199;SDS011;50516;52.272;5.136;2023-05-10T02:00:13;46.03;;;34.78;;
64199;SDS011;50516;52.272;5.136;2023-05-10T02:02:40;51.22;;;37.25;;
64199;SDS011;50516;52.272;5.136;2023-05-10T02:05:09;47.97;;;35.85;;
64199;SDS011;50516;52.272;5.136;2023-05-10T02:07:37;48.53;;;37.40;;
64199;SDS011;50516;52.272;5.136;2023-05-10T02:10:07;48.60;;;35.63;;
64199;SDS011;50516;52.272;5.136;2023-05-10T02:12:37;47.50;;;36.22;;
64199;SDS011;50516;52.272;5.136;2023-05-10T02:15:07;46.28;;;35.47;;
64199;SDS011;50516;52.272;5.136;2023-05-10T02:17:34;44.78;;;35.08;;
64199;SDS011;50516;52.272;5.136;2023-05-10T02:20:02;50.38;;;36.05;;
64199;SDS011;50516;52.272;5.136;2023-05-10T02:22:31;51.78;;;37.72;;
64199;SDS011;50516;52.272;5.136;2023-05-10T02:24:57;47.28;;;36.60;;
64199;SDS011;50516;52.272;5.136;2023-05-10T02:27:24;51.35;;;36.15;;
64199;SDS011;50516;52.272;5.136;2023-05-10T02:29:52;56.17;;;38.35;;
64199;SDS011;50516;52.272;5.136;2023-05-10T02:32:19;45.35;;;36.53;;
64199;SDS011;50516;52.272;5.136;2023-05-10T02:34:46;46.15;;;35.70;;
64199;SDS011;50516;52.272;5.136;2023-05-10T02:37:16;51.00;;;37.13;;
64199;SDS011;50516;52.272;5.136;2023-05-10T02:39:45;52.55;;;36.78;;
64199;SDS011;50516;52.272;5.136;2023-05-10T02:42:14;55.35;;;37.28;;
64199;SDS011;50516;52.272;5.136;2023-05-10T02:44:42;58.80;;;38.85;;
64199;SDS011;50516;52.272;5.136;2023-05-10T02:47:10;58.65;;;37.42;;
64199;SDS011;50516;52.272;5.136;2023-05-10T02:49:35;59.95;;;38.20;;
64199;SDS011;50516;52.272;5.136;2023-05-10T02:52:01;51.75;;;35.70;;
64199;SDS011;50516;52.272;5.136;2023-05-10T02:54:37;53.25;;;35.95;;
64199;SDS011;50516;52.272;5.136;2023-05-10T02:57:08;52.45;;;34.88;;
64199;SDS011;50516;52.272;5.136;2023-05-10T02:59:40;51.75;;;35.47;;
64199;SDS011;50516;52.272;5.136;2023-05-10T03:02:07;53.08;;;35.47;;
64199;SDS011;50516;52.272;5.136;2023-05-10T03:04:33;56.97;;;36.45;;
64199;SDS011;50516;52.272;5.136;2023-05-10T03:06:59;62.08;;;39.58;;
64199;SDS011;50516;52.272;5.136;2023-05-10T03:09:24;56.08;;;36.88;;
64199;SDS011;50516;52.272;5.136;2023-05-10T03:11:55;52.63;;;36.33;;
64199;SDS011;50516;52.272;5.136;2023-05-10T03:14:34;54.95;;;37.42;;
64199;SDS011;50516;52.272;5.136;2023-05-10T03:22:12;64.30;;;38.75;;
64199;SDS011;50516;52.272;5.136;2023-05-10T03:24:44;60.92;;;38.47;;
64199;SDS011;50516;52.272;5.136;2023-05-10T03:27:11;58.53;;;38.55;;
64199;SDS011;50516;52.272;5.136;2023-05-10T03:29:39;75.60;;;40.55;;
64199;SDS011;50516;52.272;5.136;2023-05-10T03:32:06;61.88;;;40.22;;
64199;SDS011;50516;52.272;5.136;2023-05-10T03:34:31;83.05;;;42.95;;
64199;SDS011;50516;52.272;5.136;2023-05-10T03:37:00;76.88;;;39.28;;
64199;SDS011;50516;52.272;5.136;2023-05-10T03:39:25;68.10;;;38.88;;
64199;SDS011;50516;52.272;5.136;2023-05-10T03:41:50;75.80;;;38.55;;
64199;SDS011;50516;52.272;5.136;2023-05-10T03:44:16;75.28;;;39.45;;
64199;SDS011;50516;52.272;5.136;2023-05-10T03:46:41;80.30;;;38.72;;
64199;SDS011;50516;52.272;5.136;2023-05-10T03:49:06;84.45;;;38.35;;
64199;SDS011;50516;52.272;5.136;2023-05-10T03:51:32;74.32;;;36.95;;
64199;SDS011;50516;52.272;5.136;2023-05-10T03:53:57;81.40;;;36.97;;
64199;SDS011;50516;52.272;5.136;2023-05-10T03:56:23;71.03;;;35.80;;
64199;SDS011;50516;52.272;5.136;2023-05-10T03:58:48;75.57;;;37.30;;
64199;SDS011;50516;52.272;5.136;2023-05-10T04:01:13;74.20;;;37.10;;
64199;SDS011;50516;52.272;5.136;2023-05-10T04:03:39;77.22;;;36.50;;
64199;SDS011;50516;52.272;5.136;2023-05-10T04:06:05;83.60;;;37.08;;
64199;SDS011;50516;52.272;5.136;2023-05-10T04:08:31;77.43;;;37.72;;
64199;SDS011;50516;52.272;5.136;2023-05-10T04:11:06;78.50;;;36.50;;
64199;SDS011;50516;52.272;5.136;2023-05-10T04:13:32;71.93;;;36.22;;
64199;SDS011;50516;52.272;5.136;2023-05-10T04:15:57;75.68;;;36.25;;
64199;SDS011;50516;52.272;5.136;2023-05-10T04:18:23;74.43;;;34.95;;
64199;SDS011;50516;52.272;5.136;2023-05-10T04:20:48;73.32;;;34.47;;
64199;SDS011;50516;52.272;5.136;2023-05-10T04:23:13;66.95;;;35.08;;
64199;SDS011;50516;52.272;5.136;2023-05-10T04:25:40;60.42;;;34.33;;
64199;SDS011;50516;52.272;5.136;2023-05-10T04:28:05;61.28;;;35.00;;
64199;SDS011;50516;52.272;5.136;2023-05-10T04:30:31;64.55;;;35.15;;
64199;SDS011;50516;52.272;5.136;2023-05-10T04:32:56;57.58;;;34.17;;
64199;SDS011;50516;52.272;5.136;2023-05-10T04:35:21;49.47;;;31.27;;
64199;SDS011;50516;52.272;5.136;2023-05-10T04:37:47;50.75;;;30.42;;
64199;SDS011;50516;52.272;5.136;2023-05-10T04:40:12;49.53;;;31.55;;
64199;SDS011;50516;52.272;5.136;2023-05-10T04:42:39;47.03;;;28.95;;
64199;SDS011;50516;52.272;5.136;2023-05-10T04:45:06;45.58;;;27.00;;
64199;SDS011;50516;52.272;5.136;2023-05-10T04:47:31;46.35;;;27.92;;
64199;SDS011;50516;52.272;5.136;2023-05-10T04:49:57;42.47;;;28.27;;
64199;SDS011;50516;52.272;5.136;2023-05-10T04:52:23;40.80;;;27.55;;
64199;SDS011;50516;52.272;5.136;2023-05-10T04:54:48;44.90;;;28.58;;
64199;SDS011;50516;52.272;5.136;2023-05-10T04:57:14;51.92;;;30.55;;
64199;SDS011;50516;52.272;5.136;2023-05-10T04:59:39;49.20;;;29.52;;
64199;SDS011;50516;52.272;5.136;2023-05-10T05:02:04;50.33;;;30.77;;
64199;SDS011;50516;52.272;5.136;2023-05-10T05:04:30;50.38;;;29.98;;
64199;SDS011;50516;52.272;5.136;2023-05-10T05:06:56;42.00;;;28.17;;
64199;SDS011;50516;52.272;5.136;2023-05-10T05:09:21;45.35;;;28.52;;
64199;SDS011;50516;52.272;5.136;2023-05-10T05:11:46;38.72;;;24.20;;
64199;SDS011;50516;52.272;5.136;2023-05-10T05:14:11;41.15;;;25.27;;
64199;SDS011;50516;52.272;5.136;2023-05-10T05:16:37;38.38;;;24.08;;
64199;SDS011;50516;52.272;5.136;2023-05-10T05:19:02;36.10;;;23.60;;
64199;SDS011;50516;52.272;5.136;2023-05-10T05:21:27;35.17;;;22.67;;
64199;SDS011;50516;52.272;5.136;2023-05-10T05:23:53;34.13;;;22.27;;
64199;SDS011;50516;52.272;5.136;2023-05-10T05:26:19;30.75;;;20.08;;
64199;SDS011;50516;52.272;5.136;2023-05-10T05:28:44;30.98;;;21.17;;
64199;SDS011;50516;52.272;5.136;2023-05-10T05:31:09;32.60;;;20.58;;
64199;SDS011;50516;52.272;5.136;2023-05-10T05:33:35;32.75;;;19.38;;
64199;SDS011;50516;52.272;5.136;2023-05-10T05:36:01;31.10;;;20.08;;
64199;SDS011;50516;52.272;5.136;2023-05-10T05:38:27;31.42;;;19.75;;
64199;SDS011;50516;52.272;5.136;2023-05-10T05:40:52;31.15;;;19.35;;
64199;SDS011;50516;52.272;5.136;2023-05-10T05:43:18;36.38;;;22.05;;
64199;SDS011;50516;52.272;5.136;2023-05-10T05:45:43;31.20;;;19.60;;
64199;SDS011;50516;52.272;5.136;2023-05-10T05:48:08;36.90;;;21.73;;
64199;SDS011;50516;52.272;5.136;2023-05-10T05:50:33;34.75;;;20.52;;
64199;SDS011;50516;52.272;5.136;2023-05-10T05:52:59;37.42;;;22.63;;
64199;SDS011;50516;52.272;5.136;2023-05-10T05:55:24;35.35;;;20.73;;
64199;SDS011;50516;52.272;5.136;2023-05-10T05:57:51;37.78;;;21.48;;
64199;SDS011;50516;52.272;5.136;2023-05-10T06:00:16;35.30;;;19.92;;
64199;SDS011;50516;52.272;5.136;2023-05-10T06:02:42;39.03;;;22.02;;
64199;SDS011;50516;52.272;5.136;2023-05-10T06:05:07;43.15;;;21.40;;
64199;SDS011;50516;52.272;5.136;2023-05-10T06:07:33;32.15;;;19.73;;
64199;SDS011;50516;52.272;5.136;2023-05-10T06:09:58;39.90;;;21.20;;
64199;SDS011;50516;52.272;5.136;2023-05-10T06:12:24;34.67;;;20.60;;
64199;SDS011;50516;52.272;5.136;2023-05-10T06:14:49;40.42;;;21.08;;
64199;SDS011;50516;52.272;5.136;2023-05-10T06:17:14;38.25;;;19.63;;
64199;SDS011;50516;52.272;5.136;2023-05-10T06:19:40;34.63;;;21.00;;
64199;SDS011;50516;52.272;5.136;2023-05-10T06:22:05;38.80;;;19.48;;
64199;SDS011;50516;52.272;5.136;2023-05-10T06:24:30;33.45;;;19.77;;
64199;SDS011;50516;52.272;5.136;2023-05-10T06:26:56;43.88;;;21.05;;
64199;SDS011;50516;52.272;5.136;2023-05-10T06:29:21;35.15;;;21.17;;
64199;SDS011;50516;52.272;5.136;2023-05-10T06:31:46;32.95;;;19.50;;
64199;SDS011;50516;52.272;5.136;2023-05-10T06:34:12;33.90;;;19.50;;
64199;SDS011;50516;52.272;5.136;2023-05-10T06:36:38;31.65;;;18.63;;
64199;SDS011;50516;52.272;5.136;2023-05-10T06:39:03;34.90;;;19.45;;
64199;SDS011;50516;52.272;5.136;2023-05-10T06:41:29;30.50;;;18.70;;
64199;SDS011;50516;52.272;5.136;2023-05-10T06:43:54;30.58;;;18.65;;
64199;SDS011;50516;52.272;5.136;2023-05-10T06:46:19;30.52;;;18.58;;
64199;SDS011;50516;52.272;5.136;2023-05-10T06:48:45;27.40;;;16.67;;
64199;SDS011;50516;52.272;5.136;2023-05-10T06:51:10;27.85;;;16.15;;
64199;SDS011;50516;52.272;5.136;2023-05-10T06:53:35;26.00;;;16.33;;
64199;SDS011;50516;52.272;5.136;2023-05-10T06:56:01;25.65;;;16.35;;
64199;SDS011;50516;52.272;5.136;2023-05-10T06:58:28;23.73;;;15.48;;
64199;SDS011;50516;52.272;5.136;2023-05-10T07:00:53;26.90;;;17.45;;
64199;SDS011;50516;52.272;5.136;2023-05-10T07:03:18;24.52;;;14.90;;
64199;SDS011;50516;52.272;5.136;2023-05-10T07:05:43;25.50;;;14.98;;
64199;SDS011;50516;52.272;5.136;2023-05-10T07:08:09;25.25;;;15.00;;
64199;SDS011;50516;52.272;5.136;2023-05-10T07:10:34;23.17;;;15.05;;
64199;SDS011;50516;52.272;5.136;2023-05-10T07:12:59;24.58;;;14.57;;
64199;SDS011;50516;52.272;5.136;2023-05-10T07:15:26;23.33;;;16.08;;
64199;SDS011;50516;52.272;5.136;2023-05-10T07:17:51;23.70;;;15.30;;
64199;SDS011;50516;52.272;5.136;2023-05-10T07:20:17;27.05;;;17.20;;
64199;SDS011;50516;52.272;5.136;2023-05-10T07:22:42;25.80;;;14.27;;
64199;SDS011;50516;52.272;5.136;2023-05-10T07:25:07;24.25;;;14.38;;
64199;SDS011;50516;52.272;5.136;2023-05-10T07:27:33;21.90;;;14.52;;
64199;SDS011;50516;52.272;5.136;2023-05-10T07:29:58;24.92;;;15.68;;
64199;SDS011;50516;52.272;5.136;2023-05-10T07:32:23;22.65;;;13.88;;
64199;SDS011;50516;52.272;5.136;2023-05-10T07:34:49;20.20;;;14.18;;
64199;SDS011;50516;52.272;5.136;2023-05-10T07:37:14;25.17;;;15.77;;
64199;SDS011;50516;52.272;5.136;2023-05-10T07:39:39;20.42;;;14.43;;
64199;SDS011;50516;52.272;5.136;2023-05-10T07:42:05;24.13;;;16.13;;
64199;SDS011;50516;52.272;5.136;2023-05-10T07:44:30;21.08;;;13.98;;
64199;SDS011;50516;52.272;5.136;2023-05-10T07:46:56;19.65;;;13.57;;
64199;SDS011;50516;52.272;5.136;2023-05-10T07:49:21;20.77;;;13.90;;
64199;SDS011;50516;52.272;5.136;2023-05-10T07:51:49;20.45;;;13.27;;
64199;SDS011;50516;52.272;5.136;2023-05-10T07:54:14;18.98;;;13.63;;
64199;SDS011;50516;52.272;5.136;2023-05-10T07:56:40;15.90;;;12.50;;
64199;SDS011;50516;52.272;5.136;2023-05-10T07:59:10;17.83;;;13.27;;
64199;SDS011;50516;52.272;5.136;2023-05-10T08:01:40;17.23;;;12.15;;
64199;SDS011;50516;52.272;5.136;2023-05-10T08:04:06;18.23;;;13.05;;
64199;SDS011;50516;52.272;5.136;2023-05-10T08:06:32;17.33;;;13.30;;
64199;SDS011;50516;52.272;5.136;2023-05-10T08:08:57;18.75;;;12.15;;
64199;SDS011;50516;52.272;5.136;2023-05-10T08:11:22;20.10;;;13.60;;
64199;SDS011;50516;52.272;5.136;2023-05-10T08:13:49;17.63;;;12.10;;
64199;SDS011;50516;52.272;5.136;2023-05-10T08:16:16;15.95;;;11.23;;
64199;SDS011;50516;52.272;5.136;2023-05-10T08:18:42;18.70;;;11.68;;
64199;SDS011;50516;52.272;5.136;2023-05-10T08:21:08;16.25;;;11.35;;
64199;SDS011;50516;52.272;5.136;2023-05-10T08:23:36;16.77;;;11.25;;
64199;SDS011;50516;52.272;5.136;2023-05-10T08:26:01;18.10;;;11.32;;
64199;SDS011;50516;52.272;5.136;2023-05-10T08:28:27;16.38;;;11.75;;
64199;SDS011;50516;52.272;5.136;2023-05-10T08:30:52;15.80;;;11.70;;
64199;SDS011;50516;52.272;5.136;2023-05-10T08:33:17;17.27;;;11.30;;
64199;SDS011;50516;52.272;5.136;2023-05-10T08:35:43;15.65;;;11.25;;
64199;SDS011;50516;52.272;5.136;2023-05-10T08:38:09;15.93;;;11.23;;
64199;SDS011;50516;52.272;5.136;2023-05-10T08:40:35;15.48;;;11.98;;
64199;SDS011;50516;52.272;5.136;2023-05-10T08:43:06;17.90;;;11.60;;
64199;SDS011;50516;52.272;5.136;2023-05-10T08:45:33;15.32;;;11.75;;
64199;SDS011;50516;52.272;5.136;2023-05-10T08:48:05;15.27;;;11.00;;
64199;SDS011;50516;52.272;5.136;2023-05-10T08:50:31;20.60;;;11.65;;
64199;SDS011;50516;52.272;5.136;2023-05-10T08:52:57;20.02;;;11.95;;
64199;SDS011;50516;52.272;5.136;2023-05-10T08:55:24;14.45;;;10.70;;
64199;SDS011;50516;52.272;5.136;2023-05-10T08:57:50;14.10;;;10.50;;
64199;SDS011;50516;52.272;5.136;2023-05-10T09:00:16;18.73;;;9.57;;
64199;SDS011;50516;52.272;5.136;2023-05-10T09:02:43;17.48;;;11.85;;
64199;SDS011;50516;52.272;5.136;2023-05-10T09:05:09;15.40;;;10.95;;
64199;SDS011;50516;52.272;5.136;2023-05-10T09:07:35;12.73;;;9.70;;
64199;SDS011;50516;52.272;5.136;2023-05-10T09:10:01;14.88;;;10.30;;
64199;SDS011;50516;52.272;5.136;2023-05-10T09:12:27;14.68;;;9.90;;
64199;SDS011;50516;52.272;5.136;2023-05-10T09:14:53;17.63;;;11.57;;
64199;SDS011;50516;52.272;5.136;2023-05-10T09:17:20;17.30;;;12.20;;
64199;SDS011;50516;52.272;5.136;2023-05-10T09:19:48;14.88;;;11.48;;
64199;SDS011;50516;52.272;5.136;2023-05-10T09:22:13;15.65;;;11.65;;
64199;SDS011;50516;52.272;5.136;2023-05-10T09:24:38;14.77;;;11.20;;
64199;SDS011;50516;52.272;5.136;2023-05-10T09:27:07;17.50;;;12.20;;
64199;SDS011;50516;52.272;5.136;2023-05-10T09:29:39;17.08;;;11.98;;
64199;SDS011;50516;52.272;5.136;2023-05-10T09:32:06;14.52;;;10.00;;
64199;SDS011;50516;52.272;5.136;2023-05-10T09:34:32;15.00;;;10.50;;
64199;SDS011;50516;52.272;5.136;2023-05-10T09:36:58;12.90;;;9.07;;
64199;SDS011;50516;52.272;5.136;2023-05-10T09:39:35;11.70;;;8.82;;
64199;SDS011;50516;52.272;5.136;2023-05-10T09:42:02;10.32;;;7.82;;
64199;SDS011;50516;52.272;5.136;2023-05-10T09:44:32;12.80;;;8.18;;
64199;SDS011;50516;52.272;5.136;2023-05-10T09:46:59;9.23;;;7.03;;
64199;SDS011;50516;52.272;5.136;2023-05-10T09:49:28;9.23;;;6.72;;
64199;SDS011;50516;52.272;5.136;2023-05-10T09:52:04;9.80;;;6.80;;
64199;SDS011;50516;52.272;5.136;2023-05-10T09:54:31;9.00;;;6.28;;
64199;SDS011;50516;52.272;5.136;2023-05-10T09:56:57;11.07;;;7.25;;
64199;SDS011;50516;52.272;5.136;2023-05-10T09:59:23;11.13;;;7.53;;
64199;SDS011;50516;52.272;5.136;2023-05-10T10:01:51;9.82;;;6.57;;
64199;SDS011;50516;52.272;5.136;2023-05-10T10:04:17;10.85;;;6.55;;
64199;SDS011;50516;52.272;5.136;2023-05-10T10:06:42;10.20;;;6.32;;
64199;SDS011;50516;52.272;5.136;2023-05-10T10:09:08;9.25;;;6.35;;
64199;SDS011;50516;52.272;5.136;2023-05-10T10:11:34;8.45;;;5.80;;
64199;SDS011;50516;52.272;5.136;2023-05-10T10:14:00;15.82;;;6.60;;
64199;SDS011;50516;52.272;5.136;2023-05-10T10:16:26;9.40;;;6.63;;
64199;SDS011;50516;52.272;5.136;2023-05-10T10:18:54;9.85;;;6.30;;
64199;SDS011;50516;52.272;5.136;2023-05-10T10:21:19;8.68;;;6.18;;
64199;SDS011;50516;52.272;5.136;2023-05-10T10:23:45;9.15;;;5.78;;
64199;SDS011;50516;52.272;5.136;2023-05-10T10:26:11;7.35;;;5.57;;
64199;SDS011;50516;52.272;5.136;2023-05-10T10:31:26;9.10;;;5.28;;
64199;SDS011;50516;52.272;5.136;2023-05-10T10:34:01;8.23;;;5.93;;
64199;SDS011;50516;52.272;5.136;2023-05-10T10:36:30;11.57;;;6.40;;
64199;SDS011;50516;52.272;5.136;2023-05-10T10:38:58;11.43;;;5.82;;
64199;SDS011;50516;52.272;5.136;2023-05-10T10:41:35;8.65;;;5.50;;
64199;SDS011;50516;52.272;5.136;2023-05-10T10:49:25;8.10;;;4.68;;
64199;SDS011;50516;52.272;5.136;2023-05-10T10:54:39;8.25;;;5.18;;
64199;SDS011;50516;52.272;5.136;2023-05-10T10:57:11;7.25;;;4.85;;
64199;SDS011;50516;52.272;5.136;2023-05-10T10:59:41;11.25;;;4.65;;
64199;SDS011;50516;52.272;5.136;2023-05-10T11:02:10;12.88;;;4.68;;
64199;SDS011;50516;52.272;5.136;2023-05-10T11:04:55;8.90;;;5.30;;
64199;SDS011;50516;52.272;5.136;2023-05-10T11:07:21;9.52;;;5.10;;
64199;SDS011;50516;52.272;5.136;2023-05-10T11:09:49;8.18;;;5.05;;
64199;SDS011;50516;52.272;5.136;2023-05-10T11:12:15;8.27;;;5.65;;
64199;SDS011;50516;52.272;5.136;2023-05-10T11:14:40;7.90;;;4.90;;
64199;SDS011;50516;52.272;5.136;2023-05-10T11:17:24;9.35;;;6.00;;
64199;SDS011;50516;52.272;5.136;2023-05-10T11:20:07;10.43;;;5.20;;
64199;SDS011;50516;52.272;5.136;2023-05-10T11:22:51;11.25;;;6.20;;
64199;SDS011;50516;52.272;5.136;2023-05-10T11:25:17;10.13;;;5.57;;
64199;SDS011;50516;52.272;5.136;2023-05-10T11:27:43;9.98;;;5.57;;
64199;SDS011;50516;52.272;5.136;2023-05-10T11:30:11;7.72;;;5.68;;
64199;SDS011;50516;52.272;5.136;2023-05-10T11:32:38;9.82;;;6.15;;
64199;SDS011;50516;52.272;5.136;2023-05-10T11:35:07;10.15;;;6.32;;
64199;SDS011;50516;52.272;5.136;2023-05-10T11:37:33;8.48;;;5.25;;
64199;SDS011;50516;52.272;5.136;2023-05-10T11:39:59;12.57;;;4.68;;
64199;SDS011;50516;52.272;5.136;2023-05-10T11:42:24;8.63;;;4.65;;
64199;SDS011;50516;52.272;5.136;2023-05-10T11:44:50;9.15;;;4.47;;
64199;SDS011;50516;52.272;5.136;2023-05-10T11:47:15;10.40;;;5.22;;
64199;SDS011;50516;52.272;5.136;2023-05-10T11:49:44;10.93;;;4.97;;
64199;SDS011;50516;52.272;5.136;2023-05-10T11:52:10;8.15;;;4.85;;
64199;SDS011;50516;52.272;5.136;2023-05-10T11:54:44;12.45;;;5.47;;
64199;SDS011;50516;52.272;5.136;2023-05-10T11:57:17;8.55;;;5.00;;
64199;SDS011;50516;52.272;5.136;2023-05-10T11:59:43;8.27;;;5.07;;
64199;SDS011;50516;52.272;5.136;2023-05-10T12:02:09;9.18;;;5.80;;
64199;SDS011;50516;52.272;5.136;2023-05-10T12:04:35;9.32;;;5.10;;
64199;SDS011;50516;52.272;5.136;2023-05-10T12:07:00;11.38;;;6.47;;
64199;SDS011;50516;52.272;5.136;2023-05-10T12:09:26;10.55;;;6.47;;
64199;SDS011;50516;52.272;5.136;2023-05-10T12:11:54;10.75;;;5.65;;
64199;SDS011;50516;52.272;5.136;2023-05-10T12:14:21;10.55;;;6.22;;
64199;SDS011;50516;52.272;5.136;2023-05-10T12:16:47;10.20;;;5.72;;
64199;SDS011;50516;52.272;5.136;2023-05-10T12:19:12;8.43;;;6.15;;
64199;SDS011;50516;52.272;5.136;2023-05-10T12:21:44;9.35;;;6.15;;
64199;SDS011;50516;52.272;5.136;2023-05-10T12:24:09;10.98;;;6.82;;
64199;SDS011;50516;52.272;5.136;2023-05-10T12:26:35;11.05;;;6.55;;
64199;SDS011;50516;52.272;5.136;2023-05-10T12:29:15;10.63;;;6.30;;
64199;SDS011;50516;52.272;5.136;2023-05-10T12:31:51;9.35;;;5.38;;
64199;SDS011;50516;52.272;5.136;2023-05-10T12:34:31;9.30;;;6.10;;
64199;SDS011;50516;52.272;5.136;2023-05-10T12:36:57;8.88;;;5.60;;
64199;SDS011;50516;52.272;5.136;2023-05-10T12:39:23;11.38;;;6.07;;
64199;SDS011;50516;52.272;5.136;2023-05-10T12:41:50;8.50;;;5.80;;
64199;SDS011;50516;52.272;5.136;2023-05-10T12:44:16;6.78;;;4.90;;
64199;SDS011;50516;52.272;5.136;2023-05-10T12:46:41;8.73;;;6.05;;
64199;SDS011;50516;52.272;5.136;2023-05-10T12:49:07;9.25;;;5.47;;
64199;SDS011;50516;52.272;5.136;2023-05-10T12:51:32;7.68;;;5.43;;
64199;SDS011;50516;52.272;5.136;2023-05-10T12:53:57;8.57;;;5.80;;
64199;SDS011;50516;52.272;5.136;2023-05-10T12:56:23;9.40;;;6.28;;
64199;SDS011;50516;52.272;5.136;2023-05-10T12:58:48;9.95;;;6.15;;
64199;SDS011;50516;52.272;5.136;2023-05-10T13:01:14;11.27;;;7.53;;
64199;SDS011;50516;52.272;5.136;2023-05-10T13:03:39;9.70;;;7.00;;
64199;SDS011;50516;52.272;5.136;2023-05-10T13:06:05;9.85;;;6.82;;
64199;SDS011;50516;52.272;5.136;2023-05-10T13:08:31;11.50;;;6.95;;
64199;SDS011;50516;52.272;5.136;2023-05-10T13:10:58;10.55;;;7.32;;
64199;SDS011;50516;52.272;5.136;2023-05-10T13:13:24;9.60;;;6.80;;
64199;SDS011;50516;52.272;5.136;2023-05-10T13:15:49;14.55;;;9.38;;
64199;SDS011;50516;52.272;5.136;2023-05-10T13:18:15;10.13;;;7.30;;
64199;SDS011;50516;52.272;5.136;2023-05-10T13:20:40;14.25;;;8.93;;
64199;SDS011;50516;52.272;5.136;2023-05-10T13:23:05;12.95;;;8.88;;
64199;SDS011;50516;52.272;5.136;2023-05-10T13:25:31;13.77;;;8.02;;
64199;SDS011;50516;52.272;5.136;2023-05-10T13:27:56;15.20;;;9.98;;
64199;SDS011;50516;52.272;5.136;2023-05-10T13:30:21;15.43;;;10.38;;
64199;SDS011;50516;52.272;5.136;2023-05-10T13:32:48;15.45;;;9.18;;
64199;SDS011;50516;52.272;5.136;2023-05-10T13:35:13;17.35;;;11.23;;
64199;SDS011;50516;52.272;5.136;2023-05-10T13:37:39;19.02;;;11.50;;
64199;SDS011;50516;52.272;5.136;2023-05-10T13:40:04;16.95;;;9.85;;
64199;SDS011;50516;52.272;5.136;2023-05-10T13:42:31;16.33;;;10.30;;
64199;SDS011;50516;52.272;5.136;2023-05-10T13:44:58;18.13;;;11.27;;
64199;SDS011;50516;52.272;5.136;2023-05-10T13:47:23;16.08;;;10.43;;
64199;SDS011;50516;52.272;5.136;2023-05-10T13:49:49;19.02;;;10.60;;
64199;SDS011;50516;52.272;5.136;2023-05-10T13:52:14;16.83;;;10.50;;
64199;SDS011;50516;52.272;5.136;2023-05-10T13:54:39;18.38;;;11.10;;
64199;SDS011;50516;52.272;5.136;2023-05-10T13:57:05;18.80;;;9.02;;
64199;SDS011;50516;52.272;5.136;2023-05-10T13:59:31;18.90;;;10.63;;
64199;SDS011;50516;52.272;5.136;2023-05-10T14:01:57;23.27;;;11.45;;
64199;SDS011;50516;52.272;5.136;2023-05-10T14:04:23;17.63;;;9.15;;
64199;SDS011;50516;52.272;5.136;2023-05-10T14:06:48;22.58;;;9.63;;
64199;SDS011;50516;52.272;5.136;2023-05-10T14:09:13;18.48;;;9.45;;
64199;SDS011;50516;52.272;5.136;2023-05-10T14:11:39;16.58;;;9.45;;
64199;SDS011;50516;52.272;5.136;2023-05-10T14:14:08;17.30;;;9.13;;
64199;SDS011;50516;52.272;5.136;2023-05-10T14:16:36;15.48;;;8.75;;
64199;SDS011;50516;52.272;5.136;2023-05-10T14:19:02;15.50;;;8.52;;
64199;SDS011;50516;52.272;5.136;2023-05-10T14:21:27;13.77;;;8.25;;
64199;SDS011;50516;52.272;5.136;2023-05-10T14:23:55;17.38;;;9.68;;
64199;SDS011;50516;52.272;5.136;2023-05-10T14:26:21;14.63;;;8.20;;
64199;SDS011;50516;52.272;5.136;2023-05-10T14:28:46;16.13;;;9.05;;
64199;SDS011;50516;52.272;5.136;2023-05-10T14:31:12;18.65;;;9.45;;
64199;SDS011;50516;52.272;5.136;2023-05-10T14:33:37;14.07;;;9.15;;
64199;SDS011;50516;52.272;5.136;2023-05-10T14:36:03;15.18;;;7.75;;
64199;SDS011;50516;52.272;5.136;2023-05-10T14:38:28;15.82;;;8.75;;
64199;SDS011;50516;52.272;5.136;2023-05-10T14:40:54;13.68;;;8.00;;
64199;SDS011;50516;52.272;5.136;2023-05-10T14:43:19;12.90;;;7.45;;
64199;SDS011;50516;52.272;5.136;2023-05-10T14:45:45;16.40;;;8.70;;
64199;SDS011;50516;52.272;5.136;2023-05-10T14:48:10;14.05;;;8.52;;
64199;SDS011;50516;52.272;5.136;2023-05-10T14:50:40;15.23;;;8.38;;
64199;SDS011;50516;52.272;5.136;2023-05-10T14:53:05;15.32;;;7.35;;
64199;SDS011;50516;52.272;5.136;2023-05-10T14:55:31;13.18;;;7.68;;
64199;SDS011;50516;52.272;5.136;2023-05-10T14:57:56;14.73;;;7.70;;
64199;SDS011;50516;52.272;5.136;2023-05-10T15:00:23;10.73;;;7.75;;
64199;SDS011;50516;52.272;5.136;2023-05-10T15:02:48;12.50;;;7.32;;